sensor_id;sensor_type;location;lat;lon;timestamp;pressure;altitude;pressure_sealevel;temperature
48628;BMP280;34424;52.234;6.500;2023-07-09T00:02:45;101636.5;;;20.11
48628;BMP280;34424;52.234;6.500;2023-07-09T00:07:45;101629.7;;;20.12
48628;BMP280;34424;52.234;6.500;2023-07-09T00:12:45;101632.2;;;20.17
48628;BMP280;34424;52.234;6.500;2023-07-09T00:17:45;101634.4;;;20.3
48628;BMP280;34424;52.234;6.500;2023-07-09T00:22:45;101640.7;;;20.34
48628;BMP280;34424;52.234;6.500;2023-07-09T00:27:45;101645.6;;;20.37
48628;BMP280;34424;52.234;6.500;2023-07-09T00:32:45;101644.3;;;20.31
48628;BMP280;34424;52.234;6.500;2023-07-09T00:37:45;101642.5;;;20.24
48628;BMP280;34424;52.234;6.500;2023-07-09T00:42:47;101637.9;;;20.12
48628;BMP280;34424;52.234;6.500;2023-07-09T00:47:46;101636.9;;;20.07
48628;BMP280;34424;52.234;6.500;2023-07-09T00:52:47;101636.5;;;20.01
48628;BMP280;34424;52.234;6.500;2023-07-09T00:57:45;101633.6;;;19.94
48628;BMP280;34424;52.234;6.500;2023-07-09T01:02:46;101637.4;;;19.85
48628;BMP280;34424;52.234;6.500;2023-07-09T01:07:45;101639.2;;;19.81
48628;BMP280;34424;52.234;6.500;2023-07-09T01:12:45;101640.6;;;19.83
48628;BMP280;34424;52.234;6.500;2023-07-09T01:17:45;101640.8;;;19.71
48628;BMP280;34424;52.234;6.500;2023-07-09T01:22:45;101644.5;;;19.55
48628;BMP280;34424;52.234;6.500;2023-07-09T01:27:46;101647;;;19.42
48628;BMP280;34424;52.234;6.500;2023-07-09T01:32:45;101646.9;;;19.29
48628;BMP280;34424;52.234;6.500;2023-07-09T01:37:45;101645.9;;;19.19
48628;BMP280;34424;52.234;6.500;2023-07-09T01:42:45;101643;;;19.11
48628;BMP280;34424;52.234;6.500;2023-07-09T01:47:45;101639.6;;;19.02
48628;BMP280;34424;52.234;6.500;2023-07-09T01:52:45;101637.9;;;18.96
48628;BMP280;34424;52.234;6.500;2023-07-09T01:57:45;101642.4;;;18.96
48628;BMP280;34424;52.234;6.500;2023-07-09T02:02:46;101641;;;19.03
48628;BMP280;34424;52.234;6.500;2023-07-09T02:07:45;101640.6;;;19.06
48628;BMP280;34424;52.234;6.500;2023-07-09T02:12:45;101643.6;;;19.02
48628;BMP280;34424;52.234;6.500;2023-07-09T02:17:45;101647.6;;;19
48628;BMP280;34424;52.234;6.500;2023-07-09T02:22:45;101647.5;;;18.96
48628;BMP280;34424;52.234;6.500;2023-07-09T02:27:45;101650.2;;;18.85
48628;BMP280;34424;52.234;6.500;2023-07-09T02:32:45;101655.9;;;18.81
48628;BMP280;34424;52.234;6.500;2023-07-09T02:37:45;101660.4;;;18.82
48628;BMP280;34424;52.234;6.500;2023-07-09T02:42:45;101656.2;;;18.89
48628;BMP280;34424;52.234;6.500;2023-07-09T02:47:45;101659.5;;;18.89
48628;BMP280;34424;52.234;6.500;2023-07-09T02:52:45;101665.5;;;18.87
48628;BMP280;34424;52.234;6.500;2023-07-09T02:57:45;101669.8;;;18.91
48628;BMP280;34424;52.234;6.500;2023-07-09T03:02:45;101671.2;;;18.89
48628;BMP280;34424;52.234;6.500;2023-07-09T03:07:45;101670;;;18.87
48628;BMP280;34424;52.234;6.500;2023-07-09T03:12:45;101668.1;;;18.85
48628;BMP280;34424;52.234;6.500;2023-07-09T03:17:45;101675;;;18.81
48628;BMP280;34424;52.234;6.500;2023-07-09T03:22:45;101676;;;18.85
48628;BMP280;34424;52.234;6.500;2023-07-09T03:27:46;101675.8;;;18.85
48628;BMP280;34424;52.234;6.500;2023-07-09T03:32:45;101679.6;;;18.8
48628;BMP280;34424;52.234;6.500;2023-07-09T03:37:45;101684.1;;;18.83
48628;BMP280;34424;52.234;6.500;2023-07-09T03:42:45;101680.5;;;18.82
48628;BMP280;34424;52.234;6.500;2023-07-09T03:47:45;101680.5;;;18.76
48628;BMP280;34424;52.234;6.500;2023-07-09T03:52:45;101677.2;;;18.79
48628;BMP280;34424;52.234;6.500;2023-07-09T03:57:46;101675.5;;;18.82
48628;BMP280;34424;52.234;6.500;2023-07-09T04:02:45;101678.9;;;18.9
48628;BMP280;34424;52.234;6.500;2023-07-09T04:07:45;101680.1;;;18.96
48628;BMP280;34424;52.234;6.500;2023-07-09T04:12:45;101679.4;;;19.07
48628;BMP280;34424;52.234;6.500;2023-07-09T04:17:45;101683;;;19.13
48628;BMP280;34424;52.234;6.500;2023-07-09T04:22:45;101697.6;;;19.32
48628;BMP280;34424;52.234;6.500;2023-07-09T04:27:45;101700.3;;;19.27
48628;BMP280;34424;52.234;6.500;2023-07-09T04:32:46;101701.6;;;19.34
48628;BMP280;34424;52.234;6.500;2023-07-09T04:37:45;101702.5;;;19.5
48628;BMP280;34424;52.234;6.500;2023-07-09T04:42:45;101701;;;19.53
48628;BMP280;34424;52.234;6.500;2023-07-09T04:47:45;101704.5;;;19.71
48628;BMP280;34424;52.234;6.500;2023-07-09T04:52:45;101701;;;19.88
48628;BMP280;34424;52.234;6.500;2023-07-09T04:57:45;101703.3;;;20.28
48628;BMP280;34424;52.234;6.500;2023-07-09T05:02:45;101703.9;;;20.63
48628;BMP280;34424;52.234;6.500;2023-07-09T05:07:46;101694.3;;;21.44
48628;BMP280;34424;52.234;6.500;2023-07-09T05:12:52;101692.6;;;22.06
48628;BMP280;34424;52.234;6.500;2023-07-09T05:17:46;101700.1;;;22.53
48628;BMP280;34424;52.234;6.500;2023-07-09T05:22:45;101692.9;;;22.58
48628;BMP280;34424;52.234;6.500;2023-07-09T05:27:46;101694.3;;;22.81
48628;BMP280;34424;52.234;6.500;2023-07-09T05:32:46;101689.6;;;23.22
48628;BMP280;34424;52.234;6.500;2023-07-09T05:37:46;101698.3;;;23.83
48628;BMP280;34424;52.234;6.500;2023-07-09T05:42:46;101705.2;;;24.48
48628;BMP280;34424;52.234;6.500;2023-07-09T05:47:46;101712;;;24.44
48628;BMP280;34424;52.234;6.500;2023-07-09T05:52:46;101711.7;;;24.77
48628;BMP280;34424;52.234;6.500;2023-07-09T05:57:46;101715.1;;;25.13
48628;BMP280;34424;52.234;6.500;2023-07-09T06:02:46;101715.9;;;25.78
48628;BMP280;34424;52.234;6.500;2023-07-09T06:07:46;101721;;;26.26
48628;BMP280;34424;52.234;6.500;2023-07-09T06:12:46;101726.5;;;26.68
48628;BMP280;34424;52.234;6.500;2023-07-09T06:17:46;101723.1;;;26.62
48628;BMP280;34424;52.234;6.500;2023-07-09T06:22:46;101731.3;;;27.12
48628;BMP280;34424;52.234;6.500;2023-07-09T06:27:46;101729;;;27.54
48628;BMP280;34424;52.234;6.500;2023-07-09T06:32:46;101723.1;;;27.96
48628;BMP280;34424;52.234;6.500;2023-07-09T06:37:46;101725.2;;;28.72
48628;BMP280;34424;52.234;6.500;2023-07-09T06:42:46;101724.9;;;28.65
48628;BMP280;34424;52.234;6.500;2023-07-09T06:47:46;101729;;;29
48628;BMP280;34424;52.234;6.500;2023-07-09T06:52:46;101731.3;;;29.36
48628;BMP280;34424;52.234;6.500;2023-07-09T06:57:46;101730.5;;;29.47
48628;BMP280;34424;52.234;6.500;2023-07-09T07:02:46;101736.5;;;29.37
48628;BMP280;34424;52.234;6.500;2023-07-09T07:07:46;101739.1;;;30
48628;BMP280;34424;52.234;6.500;2023-07-09T07:12:47;101732.9;;;30.71
48628;BMP280;34424;52.234;6.500;2023-07-09T07:17:46;101735.1;;;31.44
48628;BMP280;34424;52.234;6.500;2023-07-09T07:22:46;101739.8;;;31.03
48628;BMP280;34424;52.234;6.500;2023-07-09T07:27:46;101739.6;;;31.48
48628;BMP280;34424;52.234;6.500;2023-07-09T07:32:47;101742;;;31.9
48628;BMP280;34424;52.234;6.500;2023-07-09T07:37:46;101744.1;;;32.8
48628;BMP280;34424;52.234;6.500;2023-07-09T07:42:46;101743.7;;;32.99
48628;BMP280;34424;52.234;6.500;2023-07-09T07:47:46;101744.5;;;32.69
48628;BMP280;34424;52.234;6.500;2023-07-09T07:52:46;101744.1;;;33.32
48628;BMP280;34424;52.234;6.500;2023-07-09T07:57:46;101744.8;;;33.13
48628;BMP280;34424;52.234;6.500;2023-07-09T08:02:46;101745.1;;;32.81
48628;BMP280;34424;52.234;6.500;2023-07-09T08:07:46;101738.1;;;34.45
48628;BMP280;34424;52.234;6.500;2023-07-09T08:12:46;101740.8;;;33.78
48628;BMP280;34424;52.234;6.500;2023-07-09T08:17:46;101741.6;;;34.24
48628;BMP280;34424;52.234;6.500;2023-07-09T08:22:46;101733.2;;;34.77
48628;BMP280;34424;52.234;6.500;2023-07-09T08:27:46;101729.5;;;34.7
48628;BMP280;34424;52.234;6.500;2023-07-09T08:32:46;101723.6;;;34.54
48628;BMP280;34424;52.234;6.500;2023-07-09T08:37:46;101724.9;;;35.58
48628;BMP280;34424;52.234;6.500;2023-07-09T08:42:46;101723.7;;;35.9
48628;BMP280;34424;52.234;6.500;2023-07-09T08:47:47;101723.3;;;36.69
48628;BMP280;34424;52.234;6.500;2023-07-09T08:52:48;101716.5;;;37.07
48628;BMP280;34424;52.234;6.500;2023-07-09T08:57:46;101727.8;;;36.9
48628;BMP280;34424;52.234;6.500;2023-07-09T09:02:48;101729.2;;;36.69
48628;BMP280;34424;52.234;6.500;2023-07-09T09:07:47;101729.5;;;36.86
48628;BMP280;34424;52.234;6.500;2023-07-09T09:12:49;101718.5;;;36.49
48628;BMP280;34424;52.234;6.500;2023-07-09T09:17:46;101723.5;;;36.88
48628;BMP280;34424;52.234;6.500;2023-07-09T09:22:49;101719;;;37.56
48628;BMP280;34424;52.234;6.500;2023-07-09T09:27:46;101720.4;;;37.26
48628;BMP280;34424;52.234;6.500;2023-07-09T09:32:47;101717.5;;;37.73
48628;BMP280;34424;52.234;6.500;2023-07-09T09:37:49;101718.1;;;37.07
48628;BMP280;34424;52.234;6.500;2023-07-09T09:42:46;101715.5;;;37.6
48628;BMP280;34424;52.234;6.500;2023-07-09T09:47:46;101715.6;;;37.55
48628;BMP280;34424;52.234;6.500;2023-07-09T09:52:46;101714.5;;;38.15
48628;BMP280;34424;52.234;6.500;2023-07-09T09:57:51;101708.1;;;37.23
48628;BMP280;34424;52.234;6.500;2023-07-09T10:02:46;101709.3;;;37.16
48628;BMP280;34424;52.234;6.500;2023-07-09T10:07:47;101707.3;;;38.54
48628;BMP280;34424;52.234;6.500;2023-07-09T10:12:49;101703.3;;;38.31
48628;BMP280;34424;52.234;6.500;2023-07-09T10:17:47;101699.3;;;38.01
48628;BMP280;34424;52.234;6.500;2023-07-09T10:22:47;101706.3;;;37.8
48628;BMP280;34424;52.234;6.500;2023-07-09T10:27:56;101706.9;;;37.82
48628;BMP280;34424;52.234;6.500;2023-07-09T10:32:52;101701.6;;;38.53
48628;BMP280;34424;52.234;6.500;2023-07-09T10:37:54;101689.4;;;38.28
48628;BMP280;34424;52.234;6.500;2023-07-09T10:42:47;101686.1;;;38.55
48628;BMP280;34424;52.234;6.500;2023-07-09T10:47:47;101681.6;;;39.23
48628;BMP280;34424;52.234;6.500;2023-07-09T10:52:49;101675.5;;;38.73
48628;BMP280;34424;52.234;6.500;2023-07-09T10:57:53;101672.2;;;38.52
48628;BMP280;34424;52.234;6.500;2023-07-09T11:02:47;101677.9;;;38.38
48628;BMP280;34424;52.234;6.500;2023-07-09T11:07:52;101677.9;;;39.03
48628;BMP280;34424;52.234;6.500;2023-07-09T11:12:53;101670.8;;;37.51
48628;BMP280;34424;52.234;6.500;2023-07-09T11:17:51;101652.9;;;38.11
48628;BMP280;34424;52.234;6.500;2023-07-09T11:22:56;101647.5;;;38.77
48628;BMP280;34424;52.234;6.500;2023-07-09T11:28:05;101652.5;;;38.52
48628;BMP280;34424;52.234;6.500;2023-07-09T11:32:57;101649.4;;;39.33
48628;BMP280;34424;52.234;6.500;2023-07-09T11:38:06;101647;;;39.32
48628;BMP280;34424;52.234;6.500;2023-07-09T11:43:00;101641.5;;;39.27
48628;BMP280;34424;52.234;6.500;2023-07-09T11:47:59;101639.5;;;39.61
48628;BMP280;34424;52.234;6.500;2023-07-09T11:52:47;101630.3;;;39.73
48628;BMP280;34424;52.234;6.500;2023-07-09T11:57:50;101625.7;;;39.34
48628;BMP280;34424;52.234;6.500;2023-07-09T12:02:46;101619.7;;;38.94
48628;BMP280;34424;52.234;6.500;2023-07-09T12:07:46;101628.8;;;38.74
48628;BMP280;34424;52.234;6.500;2023-07-09T12:12:46;101631.9;;;38.88
48628;BMP280;34424;52.234;6.500;2023-07-09T12:17:46;101635;;;38.51
48628;BMP280;34424;52.234;6.500;2023-07-09T12:22:46;101636;;;38.62
48628;BMP280;34424;52.234;6.500;2023-07-09T12:27:46;101631;;;38.13
48628;BMP280;34424;52.234;6.500;2023-07-09T12:32:47;101632.1;;;37.41
48628;BMP280;34424;52.234;6.500;2023-07-09T12:37:46;101629.5;;;37.34
48628;BMP280;34424;52.234;6.500;2023-07-09T12:42:46;101616.5;;;37.34
48628;BMP280;34424;52.234;6.500;2023-07-09T12:47:47;101600.4;;;37.39
48628;BMP280;34424;52.234;6.500;2023-07-09T12:52:49;101595.5;;;37.03
48628;BMP280;34424;52.234;6.500;2023-07-09T12:57:46;101595.4;;;36.59
48628;BMP280;34424;52.234;6.500;2023-07-09T13:02:50;101581.4;;;36.34
48628;BMP280;34424;52.234;6.500;2023-07-09T13:07:46;101578.9;;;36.07
48628;BMP280;34424;52.234;6.500;2023-07-09T13:12:48;101566.1;;;35.85
48628;BMP280;34424;52.234;6.500;2023-07-09T13:17:46;101562.3;;;35.59
48628;BMP280;34424;52.234;6.500;2023-07-09T13:22:46;101564;;;35.76
48628;BMP280;34424;52.234;6.500;2023-07-09T13:27:46;101569.4;;;35.67
48628;BMP280;34424;52.234;6.500;2023-07-09T13:32:46;101564;;;35.87
48628;BMP280;34424;52.234;6.500;2023-07-09T13:37:46;101556.3;;;35.64
48628;BMP280;34424;52.234;6.500;2023-07-09T13:42:46;101548.6;;;36.04
48628;BMP280;34424;52.234;6.500;2023-07-09T13:47:46;101529.4;;;36.44
48628;BMP280;34424;52.234;6.500;2023-07-09T13:52:46;101510.5;;;36.31
48628;BMP280;34424;52.234;6.500;2023-07-09T13:57:46;101497.7;;;36.11
48628;BMP280;34424;52.234;6.500;2023-07-09T14:02:46;101492;;;36.07
48628;BMP280;34424;52.234;6.500;2023-07-09T14:07:46;101475.5;;;35.74
48628;BMP280;34424;52.234;6.500;2023-07-09T14:12:46;101491.7;;;35.43
48628;BMP280;34424;52.234;6.500;2023-07-09T14:17:46;101515.8;;;35.38
48628;BMP280;34424;52.234;6.500;2023-07-09T14:22:47;101529.9;;;34.98
48628;BMP280;34424;52.234;6.500;2023-07-09T14:27:48;101517.3;;;35.07
48628;BMP280;34424;52.234;6.500;2023-07-09T14:32:47;101503.3;;;34.65
48628;BMP280;34424;52.234;6.500;2023-07-09T14:37:47;101506.1;;;34.13
48628;BMP280;34424;52.234;6.500;2023-07-09T14:42:48;101487.9;;;33.61
48628;BMP280;34424;52.234;6.500;2023-07-09T14:47:46;101472.7;;;33.18
48628;BMP280;34424;52.234;6.500;2023-07-09T14:52:46;101469.9;;;32.73
48628;BMP280;34424;52.234;6.500;2023-07-09T14:57:46;101442.4;;;32.06
48628;BMP280;34424;52.234;6.500;2023-07-09T15:02:48;101455.5;;;31.49
48628;BMP280;34424;52.234;6.500;2023-07-09T15:07:46;101500;;;30.19
48628;BMP280;34424;52.234;6.500;2023-07-09T15:12:46;101530.2;;;29.07
48628;BMP280;34424;52.234;6.500;2023-07-09T15:17:46;101545.6;;;28.05
48628;BMP280;34424;52.234;6.500;2023-07-09T15:22:46;101503.1;;;26.59
48628;BMP280;34424;52.234;6.500;2023-07-09T15:27:46;101497.2;;;24.73
48628;BMP280;34424;52.234;6.500;2023-07-09T15:32:47;101580.5;;;24.11
48628;BMP280;34424;52.234;6.500;2023-07-09T15:37:46;101591.7;;;24
48628;BMP280;34424;52.234;6.500;2023-07-09T15:42:46;101571.2;;;23.86
48628;BMP280;34424;52.234;6.500;2023-07-09T15:47:47;101647.6;;;23.69
48628;BMP280;34424;52.234;6.500;2023-07-09T15:52:46;101673.9;;;23.22
48628;BMP280;34424;52.234;6.500;2023-07-09T15:57:47;101693.8;;;22.46
48628;BMP280;34424;52.234;6.500;2023-07-09T16:02:47;101718.7;;;21.72
48628;BMP280;34424;52.234;6.500;2023-07-09T16:07:46;101765.4;;;21.21
48628;BMP280;34424;52.234;6.500;2023-07-09T16:12:46;101813.1;;;20.79
48628;BMP280;34424;52.234;6.500;2023-07-09T16:17:47;101799.1;;;20.16
48628;BMP280;34424;52.234;6.500;2023-07-09T16:22:47;101796.6;;;20.09
48628;BMP280;34424;52.234;6.500;2023-07-09T16:27:46;101809.5;;;20.22
48628;BMP280;34424;52.234;6.500;2023-07-09T16:32:46;101805.2;;;20.31
48628;BMP280;34424;52.234;6.500;2023-07-09T16:37:47;101790.3;;;20.5
48628;BMP280;34424;52.234;6.500;2023-07-09T16:42:47;101754.3;;;20.72
48628;BMP280;34424;52.234;6.500;2023-07-09T16:47:46;101760;;;20.91
48628;BMP280;34424;52.234;6.500;2023-07-09T16:52:47;101759.3;;;21.33
48628;BMP280;34424;52.234;6.500;2023-07-09T16:57:46;101768;;;21.67
48628;BMP280;34424;52.234;6.500;2023-07-09T17:02:46;101787;;;21.84
48628;BMP280;34424;52.234;6.500;2023-07-09T17:07:46;101795.9;;;21.85
48628;BMP280;34424;52.234;6.500;2023-07-09T17:12:47;101787.8;;;21.67
48628;BMP280;34424;52.234;6.500;2023-07-09T17:17:46;101785.9;;;21.58
48628;BMP280;34424;52.234;6.500;2023-07-09T17:22:46;101781.4;;;21.51
48628;BMP280;34424;52.234;6.500;2023-07-09T17:27:46;101786.5;;;21.49
48628;BMP280;34424;52.234;6.500;2023-07-09T17:32:46;101773.9;;;21.72
48628;BMP280;34424;52.234;6.500;2023-07-09T17:37:48;101756.1;;;22.32
48628;BMP280;34424;52.234;6.500;2023-07-09T17:42:46;101738.9;;;22.91
48628;BMP280;34424;52.234;6.500;2023-07-09T17:47:46;101747;;;22.83
48628;BMP280;34424;52.234;6.500;2023-07-09T17:52:46;101732.1;;;22.67
48628;BMP280;34424;52.234;6.500;2023-07-09T17:57:47;101733.4;;;22.68
48628;BMP280;34424;52.234;6.500;2023-07-09T18:02:47;101733.3;;;22.65
48628;BMP280;34424;52.234;6.500;2023-07-09T18:07:46;101732.6;;;22.57
48628;BMP280;34424;52.234;6.500;2023-07-09T18:12:46;101722.8;;;22.36
48628;BMP280;34424;52.234;6.500;2023-07-09T18:17:46;101723.6;;;22
48628;BMP280;34424;52.234;6.500;2023-07-09T18:22:46;101717.1;;;21.69
48628;BMP280;34424;52.234;6.500;2023-07-09T18:27:47;101729.8;;;21.33
48628;BMP280;34424;52.234;6.500;2023-07-09T18:32:47;101723.8;;;21.16
48628;BMP280;34424;52.234;6.500;2023-07-09T18:37:46;101724.3;;;21.02
48628;BMP280;34424;52.234;6.500;2023-07-09T18:42:46;101723;;;20.76
48628;BMP280;34424;52.234;6.500;2023-07-09T18:47:46;101722.2;;;20.7
48628;BMP280;34424;52.234;6.500;2023-07-09T18:52:47;101729.9;;;20.64
48628;BMP280;34424;52.234;6.500;2023-07-09T18:57:46;101726.9;;;20.6
48628;BMP280;34424;52.234;6.500;2023-07-09T19:02:47;101740.7;;;20.67
48628;BMP280;34424;52.234;6.500;2023-07-09T19:07:46;101749.9;;;20.67
48628;BMP280;34424;52.234;6.500;2023-07-09T19:12:47;101748.7;;;20.62
48628;BMP280;34424;52.234;6.500;2023-07-09T19:17:46;101743;;;20.41
48628;BMP280;34424;52.234;6.500;2023-07-09T19:22:47;101754.1;;;20.31
48628;BMP280;34424;52.234;6.500;2023-07-09T19:27:47;101760.1;;;20.19
48628;BMP280;34424;52.234;6.500;2023-07-09T19:32:47;101757;;;20.12
48628;BMP280;34424;52.234;6.500;2023-07-09T19:37:47;101753.4;;;20.07
48628;BMP280;34424;52.234;6.500;2023-07-09T19:42:47;101752.4;;;20.01
48628;BMP280;34424;52.234;6.500;2023-07-09T19:47:46;101756.8;;;19.97
48628;BMP280;34424;52.234;6.500;2023-07-09T19:52:47;101763.7;;;19.92
48628;BMP280;34424;52.234;6.500;2023-07-09T19:57:47;101768.8;;;19.83
48628;BMP280;34424;52.234;6.500;2023-07-09T20:02:47;101766.3;;;19.74
48628;BMP280;34424;52.234;6.500;2023-07-09T20:07:46;101766.5;;;19.62
48628;BMP280;34424;52.234;6.500;2023-07-09T20:12:47;101776.8;;;19.55
48628;BMP280;34424;52.234;6.500;2023-07-09T20:17:47;101788.6;;;19.5
48628;BMP280;34424;52.234;6.500;2023-07-09T20:22:47;101794.3;;;19.46
48628;BMP280;34424;52.234;6.500;2023-07-09T20:27:47;101794.5;;;19.42
48628;BMP280;34424;52.234;6.500;2023-07-09T20:32:47;101796.4;;;19.4
48628;BMP280;34424;52.234;6.500;2023-07-09T20:37:47;101799.6;;;19.33
48628;BMP280;34424;52.234;6.500;2023-07-09T20:42:47;101795.8;;;19.26
48628;BMP280;34424;52.234;6.500;2023-07-09T20:47:47;101805;;;19.26
48628;BMP280;34424;52.234;6.500;2023-07-09T20:52:47;101809.7;;;19.2
48628;BMP280;34424;52.234;6.500;2023-07-09T20:57:47;101809.5;;;19.2
48628;BMP280;34424;52.234;6.500;2023-07-09T21:02:47;101807.1;;;19.18
48628;BMP280;34424;52.234;6.500;2023-07-09T21:07:47;101810.8;;;19.18
48628;BMP280;34424;52.234;6.500;2023-07-09T21:12:47;101812.3;;;19.17
48628;BMP280;34424;52.234;6.500;2023-07-09T21:17:47;101828.6;;;19.19
48628;BMP280;34424;52.234;6.500;2023-07-09T21:22:47;101835.7;;;19.2
48628;BMP280;34424;52.234;6.500;2023-07-09T21:27:47;101818.3;;;19.15
48628;BMP280;34424;52.234;6.500;2023-07-09T21:32:47;101817.4;;;18.95
48628;BMP280;34424;52.234;6.500;2023-07-09T21:37:47;101815;;;18.75
48628;BMP280;34424;52.234;6.500;2023-07-09T21:42:47;101815.1;;;18.56
48628;BMP280;34424;52.234;6.500;2023-07-09T21:47:47;101808.7;;;18.41
48628;BMP280;34424;52.234;6.500;2023-07-09T21:52:47;101820.9;;;18.28
48628;BMP280;34424;52.234;6.500;2023-07-09T21:57:47;101824;;;18.24
48628;BMP280;34424;52.234;6.500;2023-07-09T22:02:47;101830.8;;;18.23
48628;BMP280;34424;52.234;6.500;2023-07-09T22:07:47;101827.4;;;18.24
48628;BMP280;34424;52.234;6.500;2023-07-09T22:12:48;101827.1;;;18.3
48628;BMP280;34424;52.234;6.500;2023-07-09T22:17:47;101834.6;;;18.35
48628;BMP280;34424;52.234;6.500;2023-07-09T22:22:47;101823.3;;;18.37
48628;BMP280;34424;52.234;6.500;2023-07-09T22:27:47;101837.8;;;18.37
48628;BMP280;34424;52.234;6.500;2023-07-09T22:32:49;101820.7;;;18.35
48628;BMP280;34424;52.234;6.500;2023-07-09T22:37:47;101829.6;;;18.36
48628;BMP280;34424;52.234;6.500;2023-07-09T22:42:47;101852.8;;;18.32
48628;BMP280;34424;52.234;6.500;2023-07-09T22:47:48;101858.6;;;18.29
48628;BMP280;34424;52.234;6.500;2023-07-09T22:52:47;101823.5;;;18.23
48628;BMP280;34424;52.234;6.500;2023-07-09T22:57:47;101823;;;18.28
48628;BMP280;34424;52.234;6.500;2023-07-09T23:02:47;101811;;;18.28
48628;BMP280;34424;52.234;6.500;2023-07-09T23:07:47;101831;;;18.23
48628;BMP280;34424;52.234;6.500;2023-07-09T23:12:47;101835.9;;;18.23
48628;BMP280;34424;52.234;6.500;2023-07-09T23:17:47;101845.4;;;18.24
48628;BMP280;34424;52.234;6.500;2023-07-09T23:22:47;101831.1;;;18.26
48628;BMP280;34424;52.234;6.500;2023-07-09T23:27:47;101824;;;18.24
48628;BMP280;34424;52.234;6.500;2023-07-09T23:32:47;101828.3;;;18.19
48628;BMP280;34424;52.234;6.500;2023-07-09T23:37:47;101837.4;;;18.16
48628;BMP280;34424;52.234;6.500;2023-07-09T23:42:47;101843.6;;;18.18
48628;BMP280;34424;52.234;6.500;2023-07-09T23:47:47;101848.1;;;18.21
48628;BMP280;34424;52.234;6.500;2023-07-09T23:52:47;101841.4;;;18.21
48628;BMP280;34424;52.234;6.500;2023-07-09T23:57:48;101830.4;;;18.13
